Time Latitude Longitude Accuracy (66% radius in meters) Altitude (meters) Speed (km/hour) Bearing (degrees) Battery (%) GPS flag
09:37:56 60.403478 30.324811 24.656000137329 74.390625 0 0 95 1 delete
09:37:45 60.403478 30.324811 15.00800037384 74.389831542969 0 0 95 1 delete
09:37:35 60.403478 30.324811 12.864000320435 74.393310546875 0 0 95 1 delete
09:37:24 60.403478 30.324811 13.936000823975 74.396789550781 0 0 95 1 delete
09:37:14 60.403478 30.324811 15.00800037384 74.403076171875 0 0 95 1 delete
09:37:03 60.403478 30.324811 21.440000534058 74.405029296875 0 0 95 1 delete
09:36:53 60.403477 30.324811 8.576000213623 74.415771484375 0 0 95 1 delete
09:36:43 60.403478 30.324811 11.791999816895 74.390991210938 0 0 95 1 delete
09:36:33 60.403477 30.324810 20.368000030518 74.368774414062 0 0 95 1 delete
09:36:22 60.403477 30.324810 26.800001144409 74.356384277344 0 0 95 1 delete
09:36:12 60.403478 30.324809 7.5040001869202 74.359436035156 0 0 95 1 delete
09:36:02 60.403475 30.324841 3.2160000801086 73.516235351562 0 0 95 1 delete
09:35:55 60.403477 30.324962 4.2880001068115 72.723754882812 1.3600000143051 272.79998779297 95 1 delete
09:35:52 60.403479 30.325033 4.2880001068115 72.167541503906 0.75999999046326 268.10000610352 95 1 delete
09:35:47 60.403489 30.325158 4.2880001068115 73.704895019531 1.3700000047684 266.79998779297 95 1 delete
09:35:41 60.403482 30.325293 4.2880001068115 70.134704589844 1.3400000333786 269.5 95 1 delete
09:35:38 60.403475 30.325340 4.2880001068115 68.478759765625 1.210000038147 264.39999389648 95 1 delete
09:35:31 60.403481 30.325501 4.2880001068115 68.738098144531 0 0 95 1 delete
09:35:30 60.403483 30.325526 5.3600001335144 68.701599121094 1.1000000238419 255.5 95 1 delete
09:35:22 60.403489 30.325716 4.2880001068115 64.042846679688 1.8600000143051 279.60000610352 95 1 delete
09:35:21 60.403485 30.325752 4.2880001068115 62.703002929688 1.25 286.89999389648 95 1 delete
09:35:15 60.403468 30.325915 4.2880001068115 64.902648925781 0.81999999284744 277.10000610352 95 1 delete
09:35:10 60.403447 30.326011 4.2880001068115 67.858642578125 1.3700000047684 284.20001220703 95 1 delete
09:35:06 60.403429 30.326100 3.2160000801086 66.555541992188 1.039999961853 306.29998779297 95 1 delete
09:35:00 60.403399 30.326206 4.2880001068115 68.131469726562 0.94999998807907 290.89999389648 95 1 delete
09:34:54 60.403382 30.326281 4.2880001068115 70.25634765625 0.73000001907349 275 95 1 delete
09:34:50 60.403382 30.326371 5.3600001335144 70.232727050781 1.25 269.79998779297 95 1 delete
09:34:46 60.403374 30.326468 4.2880001068115 69.419311523438 1.0700000524521 286.20001220703 95 1 delete
09:34:39 60.403354 30.326601 4.2880001068115 68.844055175781 1.1100000143051 282 95 1 delete
09:34:37 60.403349 30.326653 4.2880001068115 70.16748046875 1.4900000095367 301.20001220703 95 1 delete
09:34:29 60.403308 30.326768 5.3600001335144 68.692321777344 1.4099999666214 310.79998779297 95 1 delete
09:34:19 60.403289 30.326812 4.2880001068115 68.685791015625 0 0 95 1 delete
09:34:18 60.403290 30.326816 4.2880001068115 68.605834960938 0 0 95 1 delete
09:34:09 60.403286 30.326938 5.3600001335144 66.864501953125 0 0 95 1 delete
09:34:07 60.403278 30.326998 6.4320001602173 64.81787109375 1.2599999904633 315.5 95 1 delete
09:34:02 60.403225 30.327171 5.3600001335144 64.904052734375 2.1400001049042 280.89999389648 95 1 delete
09:33:58 60.403214 30.327350 5.3600001335144 68.44970703125 1.3700000047684 288.29998779297 95 1 delete
09:33:57 60.403208 30.327385 5.3600001335144 68.774536132812 1.3099999427795 292.79998779297 95 1 delete
09:33:52 60.403174 30.327585 6.4320001602173 72.976684570312 0.51999998092651 290.5 95 1 delete
09:33:48 60.403131 30.327731 7.5040001869202 72.705078125 1.5499999523163 312.10000610352 95 1 delete
09:33:47 60.403117 30.327756 6.4320001602173 71.134643554688 1.6499999761581 313.20001220703 95 1 delete
09:33:41 60.403075 30.327917 5.3600001335144 73.962219238281 2.2300000190735 280.10000610352 95 1 delete
09:33:38 60.403069 30.328045 5.3600001335144 74.492065429688 1.0700000524521 293.89999389648 95 1 delete
09:33:35 60.403054 30.328111 5.3600001335144 73.609436035156 0.62000000476837 294.89999389648 95 1 delete
09:33:29 60.403018 30.328297 5.3600001335144 73.194702148438 2.210000038147 292.60000610352 95 1 delete
09:33:27 60.402995 30.328381 5.3600001335144 73.837585449219 1.9099999666214 295.39999389648 95 1 delete
09:33:24 60.402967 30.328479 6.4320001602173 74.51953125 2.5199999809265 282.20001220703 95 1 delete
09:33:21 60.402944 30.328666 6.4320001602173 73.8193359375 2.4200000762939 283.70001220703 95 1 delete
09:33:17 60.402918 30.328866 5.3600001335144 75.8037109375 1.6900000572205 278.5 95 1 delete
09:33:12 60.402895 30.329067 5.3600001335144 78.977600097656 1.8500000238419 259.79998779297 95 1 delete